createdAt,value
2017-03-13T00:00:01.436Z,0
2017-03-13T00:00:46.677Z,0
2017-03-13T00:01:27.872Z,0
2017-03-13T00:02:08.847Z,0
2017-03-13T00:02:49.279Z,0
2017-03-13T00:05:08.418Z,0
2017-03-13T00:05:55.372Z,0
2017-03-13T00:06:44.030Z,0
2017-03-13T00:09:05.030Z,0
2017-03-13T00:09:53.341Z,0
2017-03-13T00:10:39.188Z,0
2017-03-13T00:11:28.628Z,0
2017-03-13T00:12:16.801Z,0
2017-03-13T00:12:58.579Z,0
2017-03-13T00:13:39.803Z,0
2017-03-13T00:14:20.749Z,0
2017-03-13T00:15:01.203Z,0
2017-03-13T00:19:05.143Z,0
2017-03-13T00:19:50.492Z,0
2017-03-13T00:20:32.480Z,0
2017-03-13T00:23:02.604Z,0
2017-03-13T00:23:51.242Z,0
2017-03-13T00:26:12.112Z,0
2017-03-13T00:27:00.240Z,0
2017-03-13T00:27:47.269Z,0
2017-03-13T00:28:35.419Z,0
2017-03-13T00:29:24.538Z,0
2017-03-13T00:30:07.667Z,0
2017-03-13T00:30:48.187Z,0
2017-03-13T00:31:28.558Z,0
2017-03-13T00:32:08.988Z,0
2017-03-13T00:32:50.207Z,0
2017-03-13T00:35:08.814Z,0
2017-03-13T00:35:57.113Z,0
2017-03-13T00:36:45.889Z,0
2017-03-13T01:51:02.932Z,0
2017-03-13T01:56:19.422Z,0
2017-03-13T01:57:08.467Z,0
2017-03-13T01:57:57.053Z,0
2017-03-13T01:58:45.622Z,0
2017-03-13T01:59:34.311Z,0
2017-03-13T02:00:15.391Z,0
2017-03-13T02:11:03.514Z,0
2017-03-13T02:11:51.931Z,0
2017-03-13T02:12:40.541Z,0
2017-03-13T02:13:29.107Z,0
2017-03-13T02:14:17.644Z,0
2017-03-13T02:15:05.798Z,0
2017-03-13T02:15:54.891Z,0
2017-03-13T02:16:42.516Z,0
2017-03-13T02:25:29.374Z,0
2017-03-13T02:26:18.256Z,0
2017-03-13T02:27:06.862Z,0
2017-03-13T02:27:55.682Z,0
2017-03-13T02:28:44.002Z,0
2017-03-13T02:29:33.297Z,0
2017-03-13T02:30:21.568Z,0
2017-03-13T02:31:09.949Z,0
2017-03-13T02:31:58.635Z,0
2017-03-13T02:32:47.318Z,0
2017-03-13T02:33:35.639Z,0
2017-03-13T02:34:24.819Z,0
2017-03-13T02:39:04.328Z,0
2017-03-13T02:39:52.570Z,0
2017-03-13T02:40:41.132Z,0
2017-03-13T02:41:29.929Z,0
2017-03-13T02:42:18.588Z,0
2017-03-13T02:43:07.075Z,0
2017-03-13T02:43:55.586Z,0
2017-03-13T02:44:44.465Z,0
2017-03-13T02:45:32.883Z,0
2017-03-13T02:46:21.510Z,0
2017-03-13T02:47:10.535Z,0
2017-03-13T02:47:58.907Z,0
2017-03-13T02:48:47.442Z,0
2017-03-13T02:49:36.051Z,0
2017-03-13T02:50:24.636Z,0
2017-03-13T02:51:13.655Z,0
2017-03-13T03:01:51.903Z,0
2017-03-13T03:02:39.793Z,0
2017-03-13T03:03:28.913Z,0
2017-03-13T03:04:17.564Z,0
2017-03-13T03:05:06.037Z,0
2017-03-13T03:07:43.942Z,0
2017-03-13T03:08:31.371Z,0
2017-03-13T03:09:19.861Z,0
2017-03-13T03:10:08.900Z,0
2017-03-13T03:10:57.113Z,0
2017-03-13T03:11:42.773Z,0
2017-03-13T03:12:23.123Z,0
2017-03-13T03:13:04.033Z,0
2017-03-13T03:13:46.695Z,0
2017-03-13T03:14:27.771Z,0
2017-03-13T03:15:13.689Z,0
2017-03-13T03:15:55.705Z,0
2017-03-13T03:16:42.736Z,0
2017-03-13T03:17:23.796Z,0
2017-03-13T03:18:04.768Z,0
2017-03-13T03:18:49.814Z,0
2017-03-13T03:19:30.173Z,0
2017-03-13T03:20:11.931Z,0
2017-03-13T03:20:52.873Z,0
2017-03-13T03:24:43.469Z,0
2017-03-13T03:25:32.333Z,0
2017-03-13T03:26:21.007Z,0
2017-03-13T03:27:09.492Z,0
2017-03-13T03:27:58.166Z,0
2017-03-13T03:28:48.180Z,0
2017-03-13T03:29:36.430Z,0
2017-03-13T03:30:25.104Z,0
2017-03-13T03:34:41.725Z,0
2017-03-13T03:35:28.551Z,0
2017-03-13T03:36:17.176Z,0
2017-03-13T03:37:05.523Z,0
2017-03-13T03:39:27.489Z,0
2017-03-13T03:41:48.941Z,0
2017-03-13T03:44:17.422Z,0
2017-03-13T03:46:57.471Z,0
2017-03-13T03:47:46.037Z,0
2017-03-13T03:48:34.730Z,0
2017-03-13T03:49:23.391Z,0
2017-03-13T03:50:11.922Z,0
2017-03-13T03:51:00.272Z,0
2017-03-13T03:51:48.968Z,0
2017-03-13T03:54:27.898Z,0
2017-03-13T03:58:45.233Z,0
2017-03-13T04:01:04.706Z,0
2017-03-13T04:03:29.202Z,0
2017-03-13T04:12:02.301Z,0
2017-03-13T04:14:24.743Z,0
2017-03-13T04:15:12.637Z,0
2017-03-13T04:15:59.975Z,0
2017-03-13T04:16:48.444Z,0
2017-03-13T04:19:09.444Z,0
2017-03-13T04:19:58.492Z,0
2017-03-13T04:20:46.882Z,0
2017-03-13T04:23:08.657Z,0
2017-03-13T04:23:57.436Z,0
2017-03-13T04:24:45.282Z,0
2017-03-13T04:25:33.272Z,0
2017-03-13T04:26:14.033Z,0
2017-03-13T04:27:01.067Z,0
2017-03-13T04:27:41.991Z,0
2017-03-13T04:28:22.971Z,0
2017-03-13T04:29:05.958Z,0
2017-03-13T04:29:48.440Z,0
2017-03-13T04:32:41.577Z,0
2017-03-13T04:33:30.557Z,0
2017-03-13T04:34:18.436Z,0
2017-03-13T04:35:06.943Z,0
2017-03-13T04:35:51.841Z,0
2017-03-13T04:38:11.014Z,0
2017-03-13T04:38:59.339Z,0
2017-03-13T04:39:42.253Z,0
2017-03-13T04:40:22.768Z,0
2017-03-13T04:41:05.198Z,0
2017-03-13T04:41:45.558Z,0
2017-03-13T04:42:25.955Z,0
2017-03-13T04:43:06.362Z,0
2017-03-13T04:43:46.748Z,0
2017-03-13T04:44:27.153Z,0
2017-03-13T04:45:07.596Z,0
2017-03-13T04:45:48.141Z,0
2017-03-13T04:46:28.490Z,0
2017-03-13T04:47:08.922Z,0
2017-03-13T04:50:03.260Z,0
2017-03-13T04:50:51.521Z,0
2017-03-13T04:51:40.025Z,0
2017-03-13T04:52:22.261Z,0
2017-03-13T04:53:04.388Z,0
2017-03-13T04:54:06.217Z,0
2017-03-13T04:54:51.236Z,0
2017-03-13T04:57:30.159Z,0
2017-03-13T04:58:18.394Z,0
2017-03-13T04:59:06.405Z,0
2017-03-13T04:59:46.597Z,0
2017-03-13T05:00:29.921Z,0
2017-03-13T05:01:11.038Z,0
2017-03-13T05:01:50.838Z,0
2017-03-13T05:02:32.600Z,0
2017-03-13T05:03:14.674Z,0
2017-03-13T05:03:55.096Z,0
2017-03-13T05:04:37.021Z,0
2017-03-13T05:05:17.378Z,0
2017-03-13T05:06:00.274Z,0
2017-03-13T05:06:56.295Z,0
2017-03-13T05:07:36.701Z,0
2017-03-13T05:13:14.423Z,0
2017-03-13T05:14:01.609Z,0
2017-03-13T05:14:45.327Z,0
2017-03-13T05:15:25.808Z,0
2017-03-13T05:16:07.219Z,0
2017-03-13T05:16:48.141Z,0
2017-03-13T05:17:35.146Z,0
2017-03-13T05:18:21.839Z,0
2017-03-13T05:19:05.888Z,0
2017-03-13T05:19:46.603Z,0
2017-03-13T05:20:31.417Z,0
2017-03-13T05:21:12.730Z,0
2017-03-13T05:22:09.911Z,0
2017-03-13T05:22:52.190Z,0
2017-03-13T05:23:33.428Z,0
2017-03-13T05:24:14.580Z,0
2017-03-13T05:24:56.542Z,0
2017-03-13T05:29:35.831Z,0
2017-03-13T05:30:23.260Z,0
2017-03-13T05:31:11.846Z,0
2017-03-13T05:31:52.595Z,0
2017-03-13T05:32:33.722Z,0
2017-03-13T05:33:19.750Z,0
2017-03-13T05:34:02.386Z,0
2017-03-13T05:34:42.804Z,0
2017-03-13T05:35:25.090Z,0
2017-03-13T05:36:06.462Z,0
2017-03-13T05:36:47.043Z,0
2017-03-13T05:37:28.152Z,0
2017-03-13T05:38:08.526Z,0
2017-03-13T05:38:48.927Z,0
2017-03-13T05:41:03.067Z,0
2017-03-13T05:41:51.789Z,0
2017-03-13T05:42:39.088Z,0
2017-03-13T05:43:27.805Z,0
2017-03-13T05:46:03.153Z,0
2017-03-13T05:46:50.349Z,0
2017-03-13T05:49:11.269Z,0
2017-03-13T05:49:59.828Z,0
2017-03-13T05:50:42.857Z,0
2017-03-13T05:51:26.115Z,0
2017-03-13T05:52:09.122Z,0
2017-03-13T05:52:53.073Z,0
2017-03-13T05:53:34.440Z,0
2017-03-13T05:54:17.442Z,0
2017-03-13T05:54:57.845Z,0
2017-03-13T05:55:39.097Z,0
2017-03-13T05:56:20.348Z,0
2017-03-13T05:57:03.453Z,0
2017-03-13T05:57:49.364Z,0
2017-03-13T05:58:29.770Z,0
2017-03-13T05:59:11.819Z,0
2017-03-13T05:59:59.299Z,0
2017-03-13T06:00:42.485Z,0
2017-03-13T06:01:24.585Z,0
2017-03-13T06:02:05.061Z,0
2017-03-13T06:02:48.834Z,0
2017-03-13T06:05:05.582Z,0
2017-03-13T06:05:53.360Z,0
2017-03-13T06:06:38.263Z,0
2017-03-13T06:07:18.731Z,0
2017-03-13T06:08:00.126Z,0
2017-03-13T06:08:40.616Z,0
2017-03-13T06:09:21.610Z,0
2017-03-13T06:10:02.060Z,0
2017-03-13T06:10:43.171Z,0
2017-03-13T06:11:24.243Z,0
2017-03-13T06:12:15.082Z,0
2017-03-13T06:12:56.434Z,0
2017-03-13T06:13:36.835Z,0
2017-03-13T06:14:18.179Z,0
2017-03-13T06:14:59.529Z,0
2017-03-13T06:15:41.662Z,0
2017-03-13T06:16:26.555Z,0
2017-03-13T06:17:07.616Z,0
2017-03-13T06:17:51.470Z,0
2017-03-13T06:18:33.512Z,0
2017-03-13T06:19:14.541Z,0
2017-03-13T06:19:55.998Z,0
2017-03-13T06:20:37.115Z,0
2017-03-13T06:21:17.596Z,0
2017-03-13T06:21:58.020Z,0
2017-03-13T06:22:41.972Z,0
2017-03-13T06:23:24.161Z,0
2017-03-13T06:24:05.263Z,0
2017-03-13T06:24:46.368Z,0
2017-03-13T06:25:27.504Z,0
2017-03-13T06:26:08.614Z,0
2017-03-13T06:26:52.543Z,0
2017-03-13T06:27:35.548Z,0
2017-03-13T06:28:17.626Z,0
2017-03-13T06:28:58.028Z,0
2017-03-13T06:29:38.357Z,0
2017-03-13T06:30:18.768Z,0
2017-03-13T06:30:59.312Z,0
2017-03-13T06:31:40.425Z,0
2017-03-13T06:32:20.870Z,0
2017-03-13T06:33:03.137Z,0
2017-03-13T06:33:46.938Z,0
2017-03-13T06:36:05.579Z,0
2017-03-13T06:36:51.535Z,0
2017-03-13T06:37:32.476Z,0
2017-03-13T06:38:13.894Z,0
2017-03-13T06:38:56.023Z,0
2017-03-13T06:39:36.963Z,0
2017-03-13T06:40:18.260Z,0
2017-03-13T06:41:02.215Z,0
2017-03-13T06:41:46.371Z,0
2017-03-13T06:42:29.505Z,0
2017-03-13T06:43:09.968Z,0
2017-03-13T06:43:50.402Z,0
2017-03-13T06:44:30.822Z,0
2017-03-13T06:45:12.796Z,0
2017-03-13T06:45:53.807Z,0
2017-03-13T06:49:56.361Z,0
2017-03-13T06:50:40.798Z,0
2017-03-13T06:51:23.931Z,0
2017-03-13T06:52:04.570Z,0
2017-03-13T06:52:44.980Z,0
2017-03-13T06:53:25.362Z,0
2017-03-13T06:54:11.275Z,0
2017-03-13T06:54:51.697Z,0
2017-03-13T07:31:01.799Z,0
2017-03-13T07:31:42.318Z,0
2017-03-13T07:32:22.766Z,0
2017-03-13T07:33:03.751Z,0
2017-03-13T07:33:45.827Z,0
2017-03-13T07:34:27.044Z,0
2017-03-13T07:35:08.831Z,0
2017-03-13T07:35:51.782Z,0
2017-03-13T07:36:32.235Z,0
2017-03-13T07:37:12.869Z,0
2017-03-13T07:37:57.843Z,0
2017-03-13T07:38:38.247Z,0
2017-03-13T07:39:19.557Z,0
2017-03-13T07:40:01.621Z,0
2017-03-13T07:40:42.547Z,0
2017-03-13T07:41:24.907Z,0
2017-03-13T07:42:05.944Z,0
2017-03-13T07:42:47.077Z,0
2017-03-13T07:43:28.099Z,0
2017-03-13T07:44:08.534Z,0
2017-03-13T08:11:21.045Z,0
2017-03-13T08:13:35.011Z,0
2017-03-13T08:14:16.624Z,0
2017-03-13T08:14:57.014Z,0
2017-03-13T08:15:38.419Z,0
2017-03-13T08:16:18.789Z,0
2017-03-13T08:17:03.843Z,0
2017-03-13T08:17:44.283Z,0
2017-03-13T08:18:25.324Z,0
2017-03-13T08:19:08.683Z,0
2017-03-13T08:19:50.852Z,0
2017-03-13T08:27:11.660Z,0
2017-03-13T08:27:54.391Z,0
2017-03-13T08:28:35.631Z,0
2017-03-13T08:29:16.886Z,0
2017-03-13T08:29:57.432Z,0
2017-03-13T08:30:38.691Z,0
2017-03-13T08:31:19.910Z,0
2017-03-13T08:32:01.086Z,0
2017-03-13T08:32:42.093Z,0
2017-03-13T08:35:04.275Z,0
2017-03-13T08:35:46.672Z,0
2017-03-13T08:36:36.709Z,0
2017-03-13T08:37:22.973Z,0
2017-03-13T08:38:05.926Z,0
2017-03-13T08:38:54.949Z,0
2017-03-13T08:39:39.434Z,0
2017-03-13T08:40:22.002Z,0
2017-03-13T08:41:04.400Z,0
2017-03-13T08:41:55.469Z,0
2017-03-13T08:42:38.439Z,0
2017-03-13T08:51:50.512Z,1000.65
2017-03-13T08:52:37.867Z,1000.67
2017-03-13T08:53:18.066Z,1000.64
2017-03-13T08:54:04.247Z,1000.66
2017-03-13T08:54:49.185Z,1000.62
2017-03-13T08:55:31.294Z,1000.58
2017-03-13T08:56:16.286Z,1000.59
2017-03-13T08:56:57.258Z,1000.59
2017-03-13T08:57:38.362Z,1000.6
2017-03-13T08:58:22.608Z,1000.62
2017-03-13T08:59:03.056Z,1000.65
2017-03-13T08:59:46.083Z,1000.6
2017-03-13T09:00:28.042Z,1000.63
2017-03-13T09:01:09.370Z,1000.65
2017-03-13T09:01:50.465Z,1000.65
2017-03-13T09:02:33.316Z,1000.61
2017-03-13T09:03:13.733Z,1000.61
2017-03-13T09:03:55.187Z,1000.61
2017-03-13T09:04:38.091Z,1000.58
2017-03-13T09:05:20.169Z,1000.56
2017-03-13T09:06:01.438Z,1000.58
2017-03-13T09:06:41.894Z,1000.63
2017-03-13T09:07:23.562Z,1000.58
2017-03-13T09:08:05.582Z,1000.59
2017-03-13T09:08:46.960Z,1000.61
2017-03-13T09:09:29.090Z,1000.6
2017-03-13T09:10:10.206Z,1000.62
2017-03-13T09:10:53.051Z,1000.67
2017-03-13T09:11:35.487Z,1000.63
2017-03-13T09:12:22.800Z,1000.64
2017-03-13T09:13:05.570Z,1000.65
2017-03-13T09:13:47.600Z,1000.67
2017-03-13T09:14:30.716Z,1000.66
2017-03-13T09:15:11.183Z,1000.62
2017-03-13T09:15:52.380Z,1000.64
2017-03-13T09:16:32.835Z,1000.67
2017-03-13T09:17:13.322Z,1000.64
2017-03-13T09:17:54.583Z,1000.68
2017-03-13T09:18:35.036Z,1000.68
2017-03-13T09:19:17.116Z,1000.67
2017-03-13T09:19:59.216Z,1000.68
2017-03-13T09:20:41.113Z,1000.75
2017-03-13T09:21:21.604Z,1000.71
2017-03-13T09:22:06.720Z,1000.71
2017-03-13T09:22:49.723Z,1000.7
2017-03-13T09:23:31.711Z,1000.72
2017-03-13T09:24:13.584Z,1000.75
2017-03-13T09:24:54.765Z,1000.74
2017-03-13T09:25:35.263Z,1000.77
2017-03-13T09:26:18.490Z,1000.75
2017-03-13T09:27:01.123Z,1000.77
2017-03-13T09:27:41.641Z,1000.79
2017-03-13T09:28:23.841Z,1000.75
2017-03-13T09:29:04.239Z,1000.79
2017-03-13T09:29:44.738Z,1000.76
2017-03-13T09:30:25.825Z,1000.8
2017-03-13T09:31:06.274Z,1000.84
2017-03-13T09:31:48.087Z,1000.88
2017-03-13T09:35:40.671Z,1001.01
2017-03-13T09:36:21.992Z,1000.95
2017-03-13T09:37:03.251Z,1000.98
2017-03-13T09:37:44.486Z,1000.98
2017-03-13T09:38:25.748Z,1000.98
2017-03-13T09:39:06.197Z,1000.98
2017-03-13T09:39:47.484Z,1000.96
2017-03-13T09:42:02.938Z,1000.92
2017-03-13T09:42:45.685Z,1000.89
2017-03-13T09:43:26.959Z,1000.89
2017-03-13T09:44:07.452Z,1000.93
2017-03-13T09:44:48.611Z,1000.89
2017-03-13T09:45:29.083Z,1000.91
2017-03-13T09:46:10.146Z,1000.88
2017-03-13T09:46:50.639Z,1000.95
2017-03-13T09:47:32.465Z,1000.91
2017-03-13T09:48:13.692Z,1000.9
2017-03-13T09:48:54.178Z,1000.93
2017-03-13T09:51:09.430Z,1000.94
2017-03-13T09:51:56.645Z,1000.97
2017-03-13T09:52:40.165Z,1000.92
2017-03-13T09:53:21.436Z,1000.92
2017-03-13T09:54:01.943Z,1000.91
2017-03-13T09:54:42.427Z,1000.95
2017-03-13T09:55:23.452Z,1000.97
2017-03-13T09:56:04.730Z,1000.93
2017-03-13T09:56:45.223Z,1000.91
2017-03-13T09:57:30.073Z,1000.9
2017-03-13T09:58:10.624Z,1000.9
2017-03-13T09:58:51.040Z,1000.94
2017-03-13T09:59:31.545Z,1000.96
2017-03-13T10:00:12.803Z,1000.94
2017-03-13T10:04:00.148Z,1001.07
2017-03-13T10:04:49.085Z,1001.07
2017-03-13T10:07:02.903Z,1001.06
2017-03-13T10:07:50.053Z,1001.02
2017-03-13T10:08:31.570Z,1001.05
2017-03-13T10:09:12.817Z,1001.06
2017-03-13T10:09:53.309Z,1001.03
2017-03-13T10:10:35.190Z,1001.02
2017-03-13T10:11:15.750Z,1001
2017-03-13T10:11:56.965Z,1001.1
2017-03-13T10:12:37.951Z,1001.11
2017-03-13T10:13:18.383Z,1001.17
2017-03-13T10:14:01.562Z,1001.22
2017-03-13T10:14:42.709Z,1001.26
2017-03-13T10:15:23.195Z,1001.22
2017-03-13T10:16:03.663Z,1001.26
2017-03-13T10:16:44.108Z,1001.28
2017-03-13T10:17:24.579Z,1001.26
2017-03-13T10:23:17.669Z,1001.25
2017-03-13T10:24:06.475Z,1001.23
2017-03-13T10:24:54.549Z,1001.18
2017-03-13T10:27:12.445Z,1001.26
2017-03-13T10:29:41.600Z,1001.29
2017-03-13T10:30:28.068Z,1001.36
2017-03-13T10:31:11.969Z,1001.34
2017-03-13T10:31:52.430Z,1001.4
2017-03-13T10:34:07.899Z,1001.44
2017-03-13T10:39:42.012Z,1001.35
2017-03-13T10:40:30.565Z,1001.32
2017-03-13T10:41:12.710Z,1001.37
2017-03-13T10:41:53.487Z,1001.36
2017-03-13T10:44:09.914Z,1001.43
2017-03-13T10:45:03.189Z,1001.39
2017-03-13T10:45:44.939Z,1001.43
2017-03-13T10:46:26.595Z,1001.41
2017-03-13T10:47:10.649Z,1001.43
2017-03-13T10:47:51.726Z,1001.46
2017-03-13T10:48:32.204Z,1001.43
2017-03-13T10:49:13.427Z,1001.51
2017-03-13T10:49:54.721Z,1001.51
2017-03-13T10:50:36.719Z,1001.48
2017-03-13T10:51:18.108Z,1001.42
2017-03-13T10:53:47.771Z,1001.48
2017-03-13T10:57:40.137Z,1001.52
2017-03-13T10:58:27.026Z,1001.58
2017-03-13T10:59:09.507Z,1001.62
2017-03-13T10:59:50.027Z,1001.6
2017-03-13T11:00:32.065Z,1001.68
2017-03-13T11:01:18.033Z,1001.7
2017-03-13T11:01:58.485Z,1001.72
2017-03-13T11:02:40.883Z,1001.73
2017-03-13T11:03:23.382Z,1001.72
2017-03-13T11:04:04.532Z,1001.77
2017-03-13T11:04:50.943Z,1001.75
2017-03-13T11:05:33.510Z,1001.81
2017-03-13T11:06:14.661Z,1001.8
2017-03-13T11:06:57.965Z,1001.81
2017-03-13T11:07:38.445Z,1001.84
2017-03-13T11:08:18.894Z,1001.88
2017-03-13T11:08:59.425Z,1001.88
2017-03-13T11:09:41.572Z,1001.88
2017-03-13T11:10:23.607Z,1001.93
2017-03-13T11:11:09.573Z,1001.91
2017-03-13T11:11:54.557Z,1001.96
2017-03-13T11:12:35.058Z,1001.97
2017-03-13T11:16:44.644Z,1001.93
2017-03-13T11:17:33.546Z,1001.88
2017-03-13T11:18:17.628Z,1001.86
2017-03-13T11:18:58.089Z,1001.87
2017-03-13T11:19:38.589Z,1001.85
2017-03-13T11:20:19.689Z,1001.87
2017-03-13T11:21:00.895Z,1001.83
2017-03-13T11:21:45.095Z,1001.82
2017-03-13T11:24:04.717Z,1001.7
2017-03-13T11:29:21.501Z,1001.55
2017-03-13T11:30:05.706Z,1001.61
2017-03-13T11:30:47.737Z,1001.63
2017-03-13T11:31:30.222Z,1001.61
2017-03-13T11:36:21.471Z,1001.67
2017-03-13T11:37:03.903Z,1001.63
2017-03-13T11:37:45.106Z,1001.61
2017-03-13T11:38:27.138Z,1001.58
2017-03-13T11:39:09.164Z,1001.54
2017-03-13T11:39:51.470Z,1001.45
2017-03-13T11:44:12.121Z,1001.4
2017-03-13T11:51:33.014Z,1001.28
2017-03-13T11:53:40.125Z,1001.26
2017-03-13T11:55:58.287Z,1001.23
2017-03-13T11:56:46.776Z,1001.24
2017-03-13T11:57:32.910Z,1001.22
2017-03-13T11:58:13.291Z,1001.23
2017-03-13T11:59:07.512Z,1001.25
2017-03-13T11:59:49.841Z,1001.22
2017-03-13T12:00:33.108Z,1001.25
2017-03-13T12:03:16.265Z,1001.22
2017-03-13T12:04:03.329Z,1001.16
2017-03-13T12:06:43.012Z,1001.13
2017-03-13T12:07:30.692Z,1001.16
2017-03-13T12:10:10.191Z,1001.11
2017-03-13T12:10:57.245Z,1001.07
2017-03-13T12:13:00.533Z,1001.03
2017-03-13T12:14:04.476Z,1001.06
2017-03-13T12:14:47.093Z,1001.07
2017-03-13T12:15:29.960Z,1001.08
2017-03-13T12:16:10.547Z,1001.06
2017-03-13T12:16:52.490Z,1001.05
2017-03-13T12:22:39.424Z,1001.11
2017-03-13T12:24:43.447Z,1001.16
2017-03-13T12:25:31.162Z,1001.14
2017-03-13T12:26:16.939Z,1001.15
2017-03-13T12:27:04.994Z,1001.11
2017-03-13T12:29:01.510Z,1001.06
2017-03-13T12:29:46.179Z,1001.07
2017-03-13T12:30:26.695Z,1001.06
2017-03-13T12:31:07.122Z,1001.12
2017-03-13T12:31:47.617Z,1001.11
2017-03-13T12:32:29.045Z,1001.1
2017-03-13T12:33:12.364Z,1001.09
2017-03-13T12:33:53.562Z,1001.07
2017-03-13T12:39:20.075Z,1000.98
2017-03-13T12:40:08.379Z,1001.02
2017-03-13T12:40:56.469Z,1001.04
2017-03-13T12:41:45.963Z,1001.07
2017-03-13T12:42:34.521Z,1001.01
2017-03-13T12:43:20.027Z,1001.04
2017-03-13T12:44:08.947Z,1001.05
2017-03-13T12:44:57.629Z,1001.1
2017-03-13T12:45:45.818Z,1001.07
2017-03-13T12:46:36.261Z,1001.13
2017-03-13T12:47:18.377Z,1001.19
2017-03-13T12:47:59.651Z,1001.14
2017-03-13T12:48:44.146Z,1001.14
2017-03-13T12:49:29.473Z,1001.13
2017-03-13T12:50:10.545Z,1001.11
2017-03-13T12:50:51.575Z,1001.09
2017-03-13T12:51:32.022Z,1001.09
2017-03-13T12:55:24.509Z,1001.12
2017-03-13T12:56:13.091Z,1001.15
2017-03-13T12:57:01.234Z,1001.17
2017-03-13T12:57:49.462Z,1001.19
2017-03-13T12:58:33.947Z,1001.17
2017-03-13T12:59:21.934Z,1001.13
2017-03-13T13:00:06.444Z,1001.11
2017-03-13T13:00:46.960Z,1001.11
2017-03-13T13:01:30.138Z,1001.07
2017-03-13T13:02:12.974Z,1001.02
2017-03-13T13:02:52.845Z,1001.07
2017-03-13T13:03:34.871Z,1001.06
2017-03-13T13:04:16.284Z,1001.07
2017-03-13T13:04:59.612Z,1000.99
2017-03-13T13:05:41.004Z,1000.99
2017-03-13T13:06:21.821Z,1000.97
2017-03-13T13:07:03.726Z,1000.95
2017-03-13T13:07:44.862Z,1000.95
2017-03-13T13:12:04.128Z,1000.91
2017-03-13T13:14:28.228Z,1000.95
2017-03-13T13:15:17.600Z,1001
2017-03-13T13:16:03.008Z,1000.99
2017-03-13T13:16:46.042Z,1001.05
2017-03-13T13:17:27.353Z,1001.08
2017-03-13T13:18:14.350Z,1001.06
2017-03-13T13:18:55.748Z,1001.08
2017-03-13T13:19:36.161Z,1001.1
2017-03-13T13:20:17.214Z,1001.08
2017-03-13T13:20:57.730Z,1001.11
2017-03-13T13:21:38.144Z,1001.08
2017-03-13T13:22:19.322Z,1001.11
2017-03-13T13:22:59.800Z,1001.13
2017-03-13T13:23:43.665Z,1001.16
2017-03-13T13:26:20.353Z,1001.22
2017-03-13T13:27:07.462Z,1001.19
2017-03-13T13:27:54.183Z,1001.22
2017-03-13T13:31:44.536Z,1001.25
2017-03-13T13:34:01.914Z,1001.27
2017-03-13T13:34:50.239Z,1001.3
2017-03-13T13:35:30.300Z,1001.28
2017-03-13T13:36:11.037Z,1001.32
2017-03-13T13:36:52.663Z,1001.29
2017-03-13T13:37:33.023Z,1001.3
2017-03-13T13:38:13.674Z,1001.37
2017-03-13T13:38:55.675Z,1001.38
2017-03-13T13:39:37.768Z,1001.4
2017-03-13T13:42:56.346Z,1001.49
2017-03-13T13:43:37.517Z,1001.53
2017-03-13T13:44:21.486Z,1001.52
2017-03-13T13:47:02.653Z,1001.54
2017-03-13T13:49:06.483Z,1001.5
2017-03-13T13:49:51.335Z,1001.51
2017-03-13T13:50:32.565Z,1001.48
2017-03-13T13:51:14.620Z,1001.51
2017-03-13T13:51:55.734Z,1001.51
2017-03-13T13:52:38.906Z,1001.51
2017-03-13T13:53:19.392Z,1001.52
2017-03-13T13:54:00.062Z,1001.5
2017-03-13T13:54:44.081Z,1001.49
2017-03-13T13:55:26.143Z,1001.49
2017-03-13T13:56:06.646Z,1001.47
2017-03-13T13:56:48.339Z,1001.41
2017-03-13T13:57:28.931Z,1001.42
2017-03-13T13:58:12.869Z,1001.45
2017-03-13T13:58:53.904Z,1001.46
2017-03-13T13:59:36.092Z,1001.43
2017-03-13T14:01:55.818Z,1001.4
2017-03-13T14:02:39.592Z,1001.39
2017-03-13T14:03:20.600Z,1001.39
2017-03-13T14:04:01.876Z,1001.38
2017-03-13T14:04:45.131Z,1001.4
2017-03-13T14:05:34.059Z,1001.37
2017-03-13T14:06:15.337Z,1001.4
2017-03-13T14:06:55.706Z,1001.4
2017-03-13T14:09:11.635Z,1001.44
2017-03-13T14:11:46.828Z,1001.48
2017-03-13T14:12:30.521Z,1001.48
2017-03-13T14:13:11.502Z,1001.48
2017-03-13T14:13:52.495Z,1001.55
2017-03-13T14:14:32.977Z,1001.51
2017-03-13T14:15:14.314Z,1001.55
2017-03-13T14:19:59.268Z,1001.67
2017-03-13T14:20:44.014Z,1001.68
2017-03-13T14:21:32.565Z,1001.67
2017-03-13T14:22:15.971Z,1001.66
2017-03-13T14:22:56.443Z,1001.69
2017-03-13T14:23:36.904Z,1001.73
2017-03-13T14:24:21.129Z,1001.72
2017-03-13T14:25:03.967Z,1001.74
2017-03-13T14:25:45.176Z,1001.75
2017-03-13T14:29:10.687Z,1001.84
2017-03-13T14:31:48.640Z,1001.86
2017-03-13T14:32:37.519Z,1001.87
2017-03-13T14:33:22.269Z,1001.86
2017-03-13T14:34:02.706Z,1001.84
2017-03-13T14:34:43.862Z,1001.88
2017-03-13T14:35:26.785Z,1001.85
2017-03-13T14:36:08.775Z,1001.79
2017-03-13T14:36:51.889Z,1001.82
2017-03-13T14:37:34.177Z,1001.83
2017-03-13T14:40:05.535Z,1001.85
2017-03-13T14:40:54.009Z,1001.81
2017-03-13T14:41:36.018Z,1001.86
2017-03-13T14:42:16.448Z,1001.83
2017-03-13T14:42:58.683Z,1001.83
2017-03-13T14:43:41.994Z,1001.85
2017-03-13T14:44:25.714Z,1001.84
2017-03-13T14:45:08.101Z,1001.82
2017-03-13T14:45:48.561Z,1001.82
2017-03-13T14:46:29.847Z,1001.81
2017-03-13T14:47:11.042Z,1001.84
2017-03-13T14:47:53.462Z,1001.89
2017-03-13T14:48:33.917Z,1001.87
2017-03-13T14:49:16.356Z,1001.86
2017-03-13T14:49:59.452Z,1001.84
2017-03-13T14:50:42.300Z,1001.86
2017-03-13T14:51:25.350Z,1001.82
2017-03-13T14:52:06.854Z,1001.81
2017-03-13T14:52:47.311Z,1001.83
2017-03-13T14:53:27.835Z,1001.79
2017-03-13T14:54:12.727Z,1001.83
2017-03-13T14:54:55.749Z,1001.84
2017-03-13T14:55:39.103Z,1001.82
2017-03-13T14:56:20.045Z,1001.82
2017-03-13T14:57:06.989Z,1001.83
2017-03-13T14:57:48.231Z,1001.84
2017-03-13T14:58:30.672Z,1001.8
2017-03-13T14:59:18.702Z,1001.78
2017-03-13T15:00:00.949Z,1001.83
2017-03-13T15:02:43.057Z,1001.81
2017-03-13T15:03:30.727Z,1001.81
2017-03-13T15:04:12.814Z,1001.81
2017-03-13T15:04:54.041Z,1001.81
2017-03-13T15:05:36.100Z,1001.77
2017-03-13T15:06:16.553Z,1001.75
2017-03-13T15:06:58.321Z,1001.74
2017-03-13T15:07:43.699Z,1001.75
2017-03-13T15:08:26.897Z,1001.73
2017-03-13T15:09:09.826Z,1001.74
2017-03-13T15:09:52.815Z,1001.78
2017-03-13T15:10:33.305Z,1001.78
2017-03-13T15:12:51.728Z,1001.84
2017-03-13T15:13:40.799Z,1001.83
2017-03-13T15:14:29.109Z,1001.81
2017-03-13T15:15:11.153Z,1001.83
2017-03-13T15:15:52.107Z,1001.82
2017-03-13T15:20:16.385Z,1001.87
2017-03-13T15:21:01.781Z,1001.87
2017-03-13T15:23:23.442Z,1001.86
2017-03-13T15:24:12.424Z,1001.86
2017-03-13T15:30:11.620Z,0
2017-03-13T15:31:00.207Z,0
2017-03-13T15:31:48.870Z,0
2017-03-13T15:39:44.826Z,0
2017-03-13T15:51:28.236Z,0
2017-03-13T16:09:06.798Z,0
2017-03-13T16:09:55.294Z,0
2017-03-13T16:10:36.914Z,0
2017-03-13T16:11:24.950Z,0
2017-03-13T16:12:06.558Z,0
2017-03-13T16:12:46.945Z,0
2017-03-13T16:15:07.391Z,0
2017-03-13T16:15:55.927Z,0
2017-03-13T16:16:44.310Z,0
2017-03-13T16:17:30.865Z,0
2017-03-13T16:22:03.312Z,0
2017-03-13T16:22:55.916Z,0
2017-03-13T16:23:47.501Z,0
2017-03-13T16:24:37.224Z,0
2017-03-13T16:25:21.958Z,0
2017-03-13T16:26:17.225Z,0
2017-03-13T16:26:57.759Z,0
2017-03-13T16:27:43.534Z,0
2017-03-13T16:28:28.660Z,0
2017-03-13T16:29:15.704Z,0
2017-03-13T16:29:59.476Z,0
2017-03-13T16:30:43.743Z,0
2017-03-13T16:31:26.865Z,0
2017-03-13T16:32:14.052Z,0
2017-03-13T16:33:00.975Z,0
2017-03-13T16:44:53.585Z,0
2017-03-13T16:45:41.413Z,0
2017-03-13T16:46:32.577Z,0
2017-03-13T16:55:27.678Z,0
2017-03-13T16:59:34.606Z,0
2017-03-13T17:00:22.980Z,0
2017-03-13T17:01:11.740Z,0
2017-03-13T17:21:25.449Z,0
2017-03-13T17:22:14.006Z,0
2017-03-13T17:23:02.058Z,0
2017-03-13T17:23:50.814Z,0
2017-03-13T17:26:12.221Z,0
2017-03-13T17:26:59.070Z,0
2017-03-13T17:27:47.296Z,0
2017-03-13T17:32:04.066Z,0
2017-03-13T17:32:53.021Z,0
2017-03-13T17:33:41.365Z,0
2017-03-13T17:34:26.112Z,0
2017-03-13T17:35:09.336Z,0
2017-03-13T17:35:51.446Z,0
2017-03-13T17:36:35.374Z,0
2017-03-13T17:37:16.517Z,0
2017-03-13T17:37:59.762Z,0
2017-03-13T17:38:41.082Z,0
2017-03-13T17:39:21.511Z,0
2017-03-13T17:40:01.912Z,0
2017-03-13T17:40:43.900Z,0
2017-03-13T17:41:24.335Z,0
2017-03-13T17:42:04.698Z,0
2017-03-13T17:42:45.141Z,0
2017-03-13T17:43:25.606Z,0
2017-03-13T17:44:05.976Z,0
2017-03-13T17:44:47.197Z,0
2017-03-13T17:45:27.611Z,0
2017-03-13T17:47:31.403Z,0
2017-03-13T17:48:20.095Z,0
2017-03-13T17:50:40.868Z,0
2017-03-13T17:51:27.993Z,0
2017-03-13T17:52:16.215Z,0
2017-03-13T17:53:04.234Z,0